Time;durP1;ratioP1;P1;durP2;ratioP2;P2;SDS_P1;SDS_P2;PMS_P1;PMS_P2;Temp;Humidity;BMP_temperature;BMP_pressure;BME280_temperature;BME280_humidity;BME280_pressure;Samples;Min_cycle;Max_cycle;Signal;HPM_P1;HPM_P2
2023/04/23 00:00:16;;;;;;;6.93;2.83;;;;;;;;;;5021188;28;20032;-49
2023/04/23 00:02:48;;;;;;;5.70;3.08;;;;;;;;;;5072284;28;20036;-49
2023/04/23 00:05:15;;;;;;;4.32;3.00;;;12.20;99.90;;;;;;5075938;28;20500;-49
2023/04/23 00:07:41;;;;;;;2.85;2.40;;;12.20;99.90;;;;;;5076141;28;20051;-49
2023/04/23 00:10:08;;;;;;;5.20;3.92;;;12.20;99.90;;;;;;5076032;28;20384;-49
2023/04/23 00:12:34;;;;;;;5.00;3.30;;;12.40;99.90;;;;;;5024300;28;20044;-49
2023/04/23 00:15:01;;;;;;;8.50;3.13;;;12.40;99.90;;;;;;5076295;28;20020;-49
2023/04/23 00:17:27;;;;;;;4.68;2.80;;;12.30;99.90;;;;;;5055691;28;20033;-49
2023/04/23 00:19:53;;;;;;;3.38;2.65;;;12.20;99.90;;;;;;5056190;28;20538;-49
2023/04/23 00:22:21;;;;;;;3.45;2.53;;;12.10;99.90;;;;;;5056035;28;20032;-49
2023/04/23 00:24:47;;;;;;;4.13;2.70;;;12.20;99.90;;;;;;5055707;28;20033;-49
2023/04/23 00:27:13;;;;;;;22.25;13.82;;;12.20;99.90;;;;;;5004233;28;20040;-49
2023/04/23 00:29:39;;;;;;;14.90;9.50;;;12.20;99.90;;;;;;5055548;28;20040;-49
2023/04/23 00:32:05;;;;;;;6.80;4.40;;;12.20;99.90;;;;;;5055651;28;20077;-49
2023/04/23 00:34:31;;;;;;;4.95;2.92;;;12.20;99.90;;;;;;5037112;28;20033;-49
2023/04/23 00:36:57;;;;;;;5.88;3.47;;;12.20;99.90;;;;;;5052106;28;20093;-49
2023/04/23 00:39:23;;;;;;;6.40;3.75;;;12.20;99.90;;;;;;5040322;28;20032;-49
2023/04/23 00:41:49;;;;;;;6.70;3.75;;;12.20;99.90;;;;;;5040349;28;20035;-49
2023/04/23 00:44:15;;;;;;;5.88;3.83;;;12.20;99.90;;;;;;5075379;28;20071;-49
2023/04/23 00:46:41;;;;;;;5.85;3.90;;;12.20;99.90;;;;;;5075249;28;20095;-49
2023/04/23 00:49:07;;;;;;;7.65;4.75;;;12.30;99.90;;;;;;5075492;28;20348;-49
2023/04/23 00:51:33;;;;;;;6.88;4.43;;;12.30;99.90;;;;;;5075340;28;20106;-49
2023/04/23 00:53:58;;;;;;;8.38;4.40;;;12.30;99.90;;;;;;5075285;28;20052;-49
2023/04/23 00:56:26;;;;;;;4.93;3.30;;;12.30;99.90;;;;;;5023652;28;20040;-49
2023/04/23 00:58:52;;;;;;;6.03;4.53;;;12.30;99.90;;;;;;5075077;28;20396;-49
2023/04/23 01:01:19;;;;;;;9.55;4.32;;;12.30;99.90;;;;;;5056756;28;20037;-49
2023/04/23 01:03:50;;;;;;;6.43;3.90;;;12.30;99.90;;;;;;5074900;28;20098;-49
2023/04/23 01:06:16;;;;;;;8.00;4.38;;;12.30;99.90;;;;;;5075497;28;20116;-49
2023/04/23 01:08:43;;;;;;;10.25;5.05;;;12.30;99.90;;;;;;5075010;28;20024;-49
2023/04/23 01:11:13;;;;;;;6.63;3.72;;;12.30;99.90;;;;;;5075136;28;20028;-49
2023/04/23 01:13:38;;;;;;;8.57;4.70;;;12.30;99.90;;;;;;5074977;28;20025;-49
2023/04/23 01:16:05;;;;;;;8.88;4.20;;;12.30;99.90;;;;;;5074108;28;20132;-49
2023/04/23 01:18:31;;;;;;;9.50;4.93;;;12.30;99.90;;;;;;5039409;28;20090;-49
2023/04/23 01:20:57;;;;;;;6.32;3.55;;;12.30;99.90;;;;;;5074695;28;20367;-49
2023/04/23 01:23:23;;;;;;;9.30;4.80;;;12.00;99.90;;;;;;5074842;28;20476;-49
2023/04/23 01:25:49;;;;;;;10.55;5.47;;;12.10;99.90;;;;;;5074650;28;20077;-49
2023/04/23 01:28:15;;;;;;;6.03;4.43;;;12.10;99.90;;;;;;5022933;28;20498;-49
2023/04/23 01:30:42;;;;;;;5.63;4.00;;;12.10;99.90;;;;;;5074700;28;20062;-49
2023/04/23 01:33:08;;;;;;;4.43;2.95;;;12.10;99.90;;;;;;5074733;28;20035;-49
2023/04/23 01:35:35;;;;;;;5.18;2.72;;;11.50;99.90;;;;;;5074671;28;20020;-49
2023/04/23 01:38:02;;;;;;;3.58;2.53;;;;;;;;;;5074475;28;20543;-49
2023/04/23 01:40:28;;;;;;;2.30;1.83;;;10.30;99.90;;;;;;5039132;28;20036;-49
2023/04/23 01:42:55;;;;;;;2.30;2.00;;;;;;;;;;5074428;28;20039;-49
2023/04/23 01:45:21;;;;;;;5.35;2.95;;;9.90;99.90;;;;;;5039250;28;20055;-49
2023/04/23 01:47:47;;;;;;;3.00;2.47;;;10.00;99.90;;;;;;5074309;28;20051;-49
2023/04/23 01:50:13;;;;;;;3.42;2.17;;;10.30;99.90;;;;;;5073967;28;20500;-49
2023/04/23 01:52:40;;;;;;;3.25;2.55;;;10.40;99.90;;;;;;5074053;28;20021;-49
2023/04/23 01:55:07;;;;;;;4.38;2.28;;;10.30;99.90;;;;;;5074484;28;20086;-49
2023/04/23 01:57:34;;;;;;;2.92;2.10;;;10.40;99.90;;;;;;5039241;28;20507;-49
2023/04/23 02:00:10;;;;;;;2.58;2.20;;;10.60;99.90;;;;;;5073936;28;20055;-49
2023/04/23 02:02:36;;;;;;;3.47;2.50;;;10.60;99.90;;;;;;5012064;28;20049;-49
2023/04/23 02:05:03;;;;;;;2.85;2.00;;;10.60;99.90;;;;;;5012127;28;20061;-49
2023/04/23 02:07:30;;;;;;;2.17;1.77;;;10.40;99.90;;;;;;4979334;28;20431;-49
2023/04/23 02:09:56;;;;;;;4.93;2.42;;;10.50;99.90;;;;;;4995836;28;20045;-49
2023/04/23 02:12:22;;;;;;;3.55;2.45;;;10.40;99.90;;;;;;5012017;28;20444;-49
2023/04/23 02:14:47;;;;;;;2.33;1.98;;;10.60;99.90;;;;;;5011765;28;20084;-49
2023/04/23 02:17:13;;;;;;;2.70;2.28;;;10.80;99.90;;;;;;4995356;28;20041;-49
2023/04/23 02:19:39;;;;;;;2.38;1.60;;;10.90;99.90;;;;;;5011756;28;20501;-49
2023/04/23 02:22:06;;;;;;;2.60;2.00;;;10.20;99.90;;;;;;5011877;28;20441;-49
2023/04/23 02:24:32;;;;;;;3.45;2.55;;;;;;;;;;5011787;28;20042;-49
2023/04/23 02:26:58;;;;;;;2.33;2.10;;;9.20;99.90;;;;;;5011435;28;20091;-49
2023/04/23 02:29:24;;;;;;;1.70;1.60;;;9.30;99.90;;;;;;5011754;28;20034;-49
2023/04/23 02:31:50;;;;;;;3.05;2.70;;;9.40;99.90;;;;;;5011783;28;20553;-49
2023/04/23 02:34:16;;;;;;;2.75;2.00;;;9.30;99.90;;;;;;5062546;28;20115;-49
2023/04/23 02:36:41;;;;;;;3.95;2.05;;;9.30;99.90;;;;;;5021114;28;20033;-49
2023/04/23 02:39:07;;;;;;;4.18;1.85;;;9.40;99.90;;;;;;5073004;28;20029;-49
2023/04/23 02:41:33;;;;;;;2.45;2.15;;;9.20;99.90;;;;;;5057898;28;20128;-49
2023/04/23 02:43:59;;;;;;;2.03;1.83;;;9.20;99.90;;;;;;5054652;28;20061;-49
2023/04/23 02:46:24;;;;;;;3.63;2.63;;;9.30;99.90;;;;;;5038056;28;20486;-49
2023/04/23 02:48:50;;;;;;;3.33;1.95;;;9.10;99.90;;;;;;5073229;28;20044;-49
2023/04/23 02:51:16;;;;;;;3.30;2.60;;;;;;;;;;5073195;28;20102;-49
2023/04/23 02:53:42;;;;;;;3.45;1.83;;;;;;;;;;5073202;28;20498;-49
2023/04/23 02:56:08;;;;;;;2.55;2.17;;;8.90;99.90;;;;;;5038097;28;20060;-49
2023/04/23 02:58:34;;;;;;;1.75;1.58;;;8.70;99.90;;;;;;5072847;28;20028;-49
2023/04/23 03:00:59;;;;;;;2.83;1.48;;;8.60;99.90;;;;;;5073532;28;20035;-49
2023/04/23 03:03:30;;;;;;;4.75;2.13;;;8.60;99.90;;;;;;5073067;28;20032;-49
2023/04/23 03:05:56;;;;;;;2.63;2.00;;;;;;;;;;5073115;28;20504;-49
2023/04/23 03:08:22;;;;;;;2.13;1.83;;;;;;;;;;5072990;28;20503;-49
2023/04/23 03:10:49;;;;;;;2.80;2.30;;;;;;;;;;5072075;28;20029;-49
2023/04/23 03:13:15;;;;;;;1.92;1.73;;;;;;;;;;5065217;28;20396;-49
2023/04/23 03:15:41;;;;;;;4.43;2.60;;;8.70;99.90;;;;;;5009626;28;20051;-49
2023/04/23 03:18:07;;;;;;;2.80;1.92;;;8.60;99.90;;;;;;5063467;28;20016;-49
2023/04/23 03:20:34;;;;;;;2.42;1.60;;;8.70;99.90;;;;;;5062470;28;20576;-49
2023/04/23 03:23:00;;;;;;;2.80;1.90;;;8.50;99.90;;;;;;5061313;28;20083;-49
2023/04/23 03:25:26;;;;;;;3.92;2.13;;;8.50;99.90;;;;;;5063134;28;20051;-49
2023/04/23 03:27:52;;;;;;;2.17;1.75;;;8.50;99.90;;;;;;5062327;28;20021;-49
2023/04/23 03:30:18;;;;;;;2.55;2.28;;;8.60;99.90;;;;;;5061686;28;20060;-49
2023/04/23 03:32:44;;;;;;;2.72;1.90;;;8.50;99.90;;;;;;5064310;28;20093;-49
2023/04/23 03:35:10;;;;;;;3.72;2.05;;;8.60;99.90;;;;;;5072892;28;20095;-49
2023/04/23 03:37:35;;;;;;;2.33;1.92;;;8.70;99.90;;;;;;5072759;28;20028;-49
2023/04/23 03:40:07;;;;;;;6.55;2.88;;;8.90;99.90;;;;;;5076499;28;20464;-49
2023/04/23 03:42:33;;;;;;;3.10;2.35;;;8.80;99.90;;;;;;5076495;28;20475;-49
2023/04/23 03:44:59;;;;;;;4.57;3.38;;;8.90;99.90;;;;;;5014605;28;20068;-49
2023/04/23 03:47:25;;;;;;;3.72;2.85;;;8.90;99.90;;;;;;4965794;28;20500;-49
2023/04/23 03:49:52;;;;;;;4.10;2.22;;;8.80;99.90;;;;;;4998143;28;20060;-49
2023/04/23 03:52:18;;;;;;;4.20;2.65;;;8.60;99.90;;;;;;5014723;28;20046;-49
2023/04/23 03:54:44;;;;;;;3.55;2.25;;;8.60;99.90;;;;;;5014565;28;20129;-49
2023/04/23 03:57:12;;;;;;;3.75;2.35;;;8.70;99.90;;;;;;4982051;28;20069;-49
2023/04/23 03:59:38;;;;;;;3.70;3.25;;;9.00;99.90;;;;;;4965218;28;20057;-49
2023/04/23 04:02:04;;;;;;;3.90;2.60;;;9.10;99.90;;;;;;5014500;28;20030;-49
2023/04/23 04:04:31;;;;;;;3.38;2.53;;;9.40;99.90;;;;;;5014255;28;20107;-49
2023/04/23 04:06:59;;;;;;;3.78;2.45;;;9.10;99.90;;;;;;4997904;28;20042;-49
2023/04/23 04:09:25;;;;;;;3.25;2.47;;;9.00;99.90;;;;;;5014254;28;20121;-49
2023/04/23 04:11:53;;;;;;;5.80;2.67;;;9.10;99.90;;;;;;5014167;28;20029;-49
2023/04/23 04:14:19;;;;;;;5.15;2.28;;;9.10;99.90;;;;;;4981594;28;20050;-49
2023/04/23 04:16:45;;;;;;;3.45;2.53;;;9.10;99.90;;;;;;5065169;28;20048;-49
2023/04/23 04:19:11;;;;;;;2.50;2.20;;;9.10;99.90;;;;;;5076010;28;20040;-49
2023/04/23 04:21:36;;;;;;;5.13;3.00;;;8.90;99.90;;;;;;5075950;28;20028;-50
2023/04/23 04:24:03;;;;;;;4.28;2.17;;;9.00;99.90;;;;;;5076138;28;20035;-49
2023/04/23 04:26:31;;;;;;;2.00;1.88;;;8.80;99.90;;;;;;5075828;28;20051;-49
2023/04/23 04:28:58;;;;;;;4.97;3.10;;;8.60;99.90;;;;;;5075943;28;20035;-49
2023/04/23 04:31:27;;;;;;;5.20;2.67;;;8.60;99.90;;;;;;5040999;28;20044;-49
2023/04/23 04:33:55;;;;;;;3.45;1.98;;;8.70;99.90;;;;;;5075664;28;20036;-49
2023/04/23 04:36:24;;;;;;;2.35;2.10;;;8.90;99.90;;;;;;5075961;28;20063;-49
2023/04/23 04:38:50;;;;;;;6.05;2.10;;;;;;;;;;5075716;28;20032;-49
2023/04/23 04:41:18;;;;;;;2.78;2.22;;;9.90;99.90;;;;;;5075509;28;20039;-49
2023/04/23 04:43:45;;;;;;;2.47;2.28;;;9.90;99.90;;;;;;5075361;28;20043;-49
2023/04/23 04:46:11;;;;;;;3.63;2.83;;;9.90;99.90;;;;;;5075574;28;20475;-49
2023/04/23 04:48:37;;;;;;;3.17;2.40;;;10.00;99.90;;;;;;5075998;28;20028;-49
2023/04/23 04:51:03;;;;;;;2.35;2.13;;;10.20;99.90;;;;;;5038858;28;20057;-49
2023/04/23 04:53:29;;;;;;;3.08;2.45;;;10.40;99.90;;;;;;5074234;28;20028;-49
2023/04/23 04:55:55;;;;;;;3.15;2.10;;;10.20;99.90;;;;;;5074045;28;20059;-49
2023/04/23 04:58:20;;;;;;;2.58;1.90;;;10.30;99.90;;;;;;5074111;28;20029;-49
2023/04/23 05:00:50;;;;;;;3.05;2.75;;;10.30;99.90;;;;;;5005738;28;20033;-49
2023/04/23 05:03:17;;;;;;;3.50;2.35;;;10.50;99.90;;;;;;4992399;28;20052;-49
2023/04/23 05:05:44;;;;;;;2.20;2.00;;;10.60;99.90;;;;;;5074028;28;20442;-49
2023/04/23 05:08:10;;;;;;;2.53;2.15;;;10.50;99.90;;;;;;5073922;28;20028;-49
2023/04/23 05:10:36;;;;;;;3.38;2.30;;;10.60;99.90;;;;;;5074225;28;20033;-49
2023/04/23 05:13:01;;;;;;;3.60;2.53;;;10.70;99.90;;;;;;5073888;28;20029;-49
2023/04/23 05:15:27;;;;;;;3.65;2.10;;;10.70;99.90;;;;;;5022289;28;20037;-50
2023/04/23 05:17:53;;;;;;;3.85;2.95;;;;;;;;;;5053831;28;20025;-50
2023/04/23 05:20:20;;;;;;;3.50;2.45;;;11.10;99.90;;;;;;5018814;28;20032;-49
2023/04/23 05:22:45;;;;;;;5.30;3.00;;;11.40;99.90;;;;;;5053723;28;20396;-49
2023/04/23 05:25:12;;;;;;;9.32;6.57;;;11.70;99.90;;;;;;5053851;28;20037;-50
2023/04/23 05:27:38;;;;;;;8.02;3.63;;;11.70;99.90;;;;;;5053723;28;20032;-49
2023/04/23 05:30:07;;;;;;;3.78;2.88;;;11.80;99.90;;;;;;5053616;28;20024;-49
2023/04/23 05:32:33;;;;;;;4.70;3.47;;;12.00;99.90;;;;;;5053819;28;20353;-49
2023/04/23 05:35:01;;;;;;;4.95;3.20;;;12.20;99.90;;;;;;5053647;28;20028;-49
2023/04/23 05:37:27;;;;;;;3.40;2.60;;;12.40;99.90;;;;;;5053383;28;20090;-49
2023/04/23 05:39:53;;;;;;;4.00;3.17;;;;;;;;;;5053929;28;20056;-49
2023/04/23 05:42:20;;;;;;;5.07;3.28;;;;;;;;;;5053624;28;20448;-49
2023/04/23 05:44:45;;;;;;;4.97;2.78;;;12.60;99.90;;;;;;5053332;28;20048;-50
2023/04/23 05:47:13;;;;;;;3.15;2.83;;;12.50;99.90;;;;;;4985681;28;20033;-50
2023/04/23 05:49:39;;;;;;;3.88;3.08;;;12.50;99.90;;;;;;5001859;28;1159240;-49
2023/04/23 05:52:05;;;;;;;6.05;2.92;;;12.70;99.90;;;;;;5030746;28;20044;-50
2023/04/23 05:54:31;;;;;;;6.43;3.20;;;12.60;99.90;;;;;;5054365;28;20033;-49
2023/04/23 05:56:56;;;;;;;5.43;2.88;;;12.70;99.90;;;;;;5054698;28;20032;-49
2023/04/23 05:59:22;;;;;;;4.75;2.80;;;12.70;99.90;;;;;;5053834;28;20039;-49
2023/04/23 06:01:48;;;;;;;4.93;2.55;;;12.70;99.90;;;;;;5067663;28;20033;-49
2023/04/23 06:04:15;;;;;;;5.03;3.30;;;12.90;99.90;;;;;;5073682;28;20564;-49
2023/04/23 06:06:42;;;;;;;3.70;2.22;;;13.30;99.90;;;;;;5073836;28;20093;-49
2023/04/23 06:09:08;;;;;;;2.85;2.42;;;13.30;99.90;;;;;;5031123;28;20090;-50
2023/04/23 06:11:37;;;;;;;7.35;2.63;;;;;;;;;;5063670;28;20478;-50
2023/04/23 06:14:03;;;;;;;2.47;2.20;;;13.60;99.90;;;;;;5059968;28;20505;-50
2023/04/23 06:16:29;;;;;;;3.10;2.70;;;13.80;99.90;;;;;;5028037;28;20033;-50
2023/04/23 06:18:55;;;;;;;2.97;2.42;;;14.30;99.90;;;;;;5063801;28;20032;-50
2023/04/23 06:21:22;;;;;;;2.97;2.67;;;;;;;;;;5062094;28;20033;-50
2023/04/23 06:23:49;;;;;;;3.47;2.90;;;;;;;;;;5063392;28;20028;-50
2023/04/23 06:26:15;;;;;;;5.70;2.78;;;;;;;;;;5063864;28;20108;-50
2023/04/23 06:28:45;;;;;;;3.63;2.30;;;;;;;;;;5061760;28;20025;-50
2023/04/23 06:31:11;;;;;;;4.60;3.42;;;;;;;;;;5063065;28;20030;-50
2023/04/23 06:33:37;;;;;;;4.07;2.70;;;;;;;;;;5063878;28;20060;-50
2023/04/23 06:36:04;;;;;;;2.67;2.20;;;;;;;;;;5053508;28;20376;-50
2023/04/23 06:38:30;;;;;;;6.00;3.33;;;;;;;;;;5056774;28;20041;-51
2023/04/23 06:40:56;;;;;;;4.22;2.33;;;15.30;99.90;;;;;;5061815;28;20033;-49
2023/04/23 06:43:22;;;;;;;4.75;2.28;;;;;;;;;;5073533;28;20041;-51
2023/04/23 06:45:48;;;;;;;4.95;2.92;;;;;;;;;;5073384;28;20025;-50
2023/04/23 06:48:15;;;;;;;2.92;2.45;;;;;;;;;;5071595;28;20112;-51
2023/04/23 06:50:41;;;;;;;4.00;2.83;;;;;;;;;;5062034;28;20064;-50
2023/04/23 06:53:07;;;;;;;4.43;3.17;;;;;;;;;;5026388;28;20083;-51
2023/04/23 06:55:33;;;;;;;5.03;3.00;;;;;;;;;;5044155;28;20041;-50
2023/04/23 06:58:00;;;;;;;4.28;3.08;;;;;;;;;;5073392;28;20056;-51
2023/04/23 07:00:26;;;;;;;3.97;2.00;;;;;;;;;;5037754;28;20040;-51
2023/04/23 07:02:52;;;;;;;3.13;2.25;;;;;;;;;;5073175;28;20032;-51
2023/04/23 07:05:18;;;;;;;4.90;2.92;;;16.30;99.90;;;;;;5069621;28;20119;-50
2023/04/23 07:07:44;;;;;;;4.32;2.95;;;16.70;99.90;;;;;;5063121;28;20024;-51
2023/04/23 07:10:11;;;;;;;3.78;2.95;;;17.00;99.90;;;;;;5017566;28;20507;-51
2023/04/23 07:12:38;;;;;;;4.07;2.58;;;17.10;99.90;;;;;;5063078;28;20399;-51
2023/04/23 07:15:05;;;;;;;4.03;3.00;;;17.20;99.90;;;;;;5068588;28;20039;-51
2023/04/23 07:17:32;;;;;;;4.30;2.90;;;17.20;99.90;;;;;;5016849;28;20044;-51
2023/04/23 07:19:57;;;;;;;4.50;2.90;;;17.30;99.90;;;;;;5058136;28;20461;-51
2023/04/23 07:22:24;;;;;;;3.50;2.65;;;17.40;99.90;;;;;;5060033;28;20113;-51
2023/04/23 07:24:51;;;;;;;3.63;2.33;;;17.10;99.90;;;;;;5062103;28;20123;-51
2023/04/23 07:27:16;;;;;;;4.85;2.65;;;17.10;99.90;;;;;;5068966;28;20028;-52
2023/04/23 07:29:42;;;;;;;4.30;2.80;;;17.40;99.90;;;;;;5056731;28;20090;-51
2023/04/23 07:32:08;;;;;;;3.25;2.45;;;17.90;99.90;;;;;;5035112;28;20076;-50
2023/04/23 07:34:35;;;;;;;2.85;2.55;;;17.70;99.90;;;;;;5056804;28;20116;-50
2023/04/23 07:37:02;;;;;;;4.72;2.72;;;17.80;99.90;;;;;;5058273;28;20043;-50
2023/04/23 07:39:27;;;;;;;6.28;3.30;;;17.80;99.90;;;;;;5026372;28;20135;-51
2023/04/23 07:41:54;;;;;;;5.15;2.70;;;18.10;99.90;;;;;;5062505;28;20108;-51
2023/04/23 07:44:20;;;;;;;3.15;2.70;;;;;;;;;;5062396;28;20083;-50
2023/04/23 07:46:46;;;;;;;4.32;2.88;;;;;;;;;;5062728;28;20503;-48
2023/04/23 07:49:12;;;;;;;3.60;3.03;;;;;;;;;;5064132;28;20103;-48
2023/04/23 07:51:38;;;;;;;5.35;4.45;;;;;;;;;;5063256;28;20032;-48
2023/04/23 07:54:04;;;;;;;4.72;2.95;;;19.00;99.90;;;;;;5052255;28;20052;-48
2023/04/23 07:56:31;;;;;;;4.75;2.75;;;18.90;99.90;;;;;;5017732;28;20068;-48
2023/04/23 07:58:57;;;;;;;2.95;2.13;;;;;;;;;;5052450;28;20037;-48
2023/04/23 08:01:24;;;;;;;3.00;2.50;;;19.20;99.90;;;;;;5062675;28;20108;-48
2023/04/23 08:03:50;;;;;;;4.32;3.05;;;;;;;;;;5072394;28;20037;-48
2023/04/23 08:06:17;;;;;;;3.03;2.30;;;20.30;99.90;;;;;;5070466;28;20087;-48
2023/04/23 08:08:43;;;;;;;4.32;3.38;;;20.40;99.90;;;;;;5072635;28;20036;-49
2023/04/23 08:11:10;;;;;;;7.72;2.67;;;20.60;99.90;;;;;;5061183;28;20029;-46
2023/04/23 08:13:35;;;;;;;3.22;2.30;;;21.00;99.90;;;;;;5052440;28;20033;-52
2023/04/23 08:16:01;;;;;;;5.25;2.92;;;20.80;99.90;;;;;;5017653;28;20507;-49
2023/04/23 08:18:27;;;;;;;4.43;2.67;;;21.10;99.90;;;;;;5064244;28;20036;-48
2023/04/23 08:20:53;;;;;;;3.67;2.60;;;21.30;99.90;;;;;;5057831;28;20079;-49
2023/04/23 08:23:19;;;;;;;2.80;2.38;;;21.50;99.90;;;;;;5052079;28;20044;-47
2023/04/23 08:25:45;;;;;;;3.55;2.45;;;;;;;;;;5054845;28;20865;-47
2023/04/23 08:28:11;;;;;;;4.38;2.63;;;;;;;;;;5060966;28;20129;-48
2023/04/23 08:30:37;;;;;;;8.13;2.78;;;;;;;;;;5034031;28;20056;-47
2023/04/23 08:33:03;;;;;;;5.35;2.85;;;;;;;;;;5074779;28;20032;-47
2023/04/23 08:35:29;;;;;;;3.90;2.78;;;;;;;;;;5003754;28;20453;-47
2023/04/23 08:37:55;;;;;;;5.90;3.58;;;;;;;;;;4974333;28;20135;-47
2023/04/23 08:40:22;;;;;;;7.78;3.78;;;;;;;;;;5075498;28;20024;-47
2023/04/23 08:43:00;;;;;;;5.60;3.20;;;22.50;99.90;;;;;;5066631;28;21862;-48
2023/04/23 08:45:27;;;;;;;4.63;3.22;;;22.70;99.90;;;;;;5065530;28;20048;-47
2023/04/23 08:47:57;;;;;;;3.33;2.50;;;;;;;;;;5032558;28;20087;-47
2023/04/23 08:50:24;;;;;;;4.28;2.67;;;;;;;;;;5066356;28;20053;-48
2023/04/23 08:52:54;;;;;;;4.50;3.38;;;;;;;;;;5066549;28;20049;-47
2023/04/23 08:55:21;;;;;;;3.50;2.78;;;;;;;;;;5072682;28;20024;-47
2023/04/23 08:57:47;;;;;;;4.30;3.05;;;23.70;99.90;;;;;;5075227;28;20047;-47
2023/04/23 09:00:14;;;;;;;4.13;3.30;;;;;;;;;;5040011;28;20041;-47
2023/04/23 09:02:42;;;;;;;5.55;2.75;;;;;;;;;;5070597;28;20047;-47
2023/04/23 09:05:08;;;;;;;5.57;3.33;;;;;;;;;;5068102;28;20083;-47
2023/04/23 09:07:34;;;;;;;5.50;3.08;;;;;;;;;;5058177;28;20463;-47
2023/04/23 09:10:03;;;;;;;4.63;2.75;;;;;;;;;;5084482;28;20029;-47
2023/04/23 09:12:30;;;;;;;4.40;2.95;;;;;;;;;;4974167;28;20034;-48
2023/04/23 09:14:56;;;;;;;4.43;3.15;;;;;;;;;;4994388;28;20039;-47
2023/04/23 09:17:23;;;;;;;3.90;2.85;;;;;;;;;;4992851;28;20057;-47
2023/04/23 09:19:53;;;;;;;9.38;4.32;;;;;;;;;;5012948;28;20042;-47
2023/04/23 09:22:43;;;;;;;5.82;3.45;;;25.30;98.00;;;;;;4988115;28;20395;-47
2023/04/23 09:25:10;;;;;;;5.15;3.50;;;24.80;98.10;;;;;;4984335;28;20047;-47
2023/04/23 09:27:37;;;;;;;5.95;3.33;;;;;;;;;;4983212;28;20035;-47
2023/04/23 09:30:09;;;;;;;4.43;3.20;;;;;;;;;;4983612;28;20019;-47
2023/04/23 09:32:36;;;;;;;5.35;4.00;;;;;;;;;;4982357;28;20039;-47
2023/04/23 09:35:04;;;;;;;117.38;104.75;;;25.70;97.80;;;;;;4950164;28;20038;-47
2023/04/23 09:37:31;;;;;;;5.05;3.63;;;;;;;;;;4993813;28;20481;-47
2023/04/23 09:40:01;;;;;;;6.15;3.70;;;;;;;;;;5023712;28;20076;-47
2023/04/23 09:42:27;;;;;;;5.80;3.85;;;25.90;99.90;;;;;;4995888;28;20053;-48
2023/04/23 09:45:04;;;;;;;4.70;3.15;;;;;;;;;;5012413;28;20517;-47
2023/04/23 09:47:37;;;;;;;8.05;4.05;;;;;;;;;;5015385;28;20065;-48
2023/04/23 09:50:04;;;;;;;6.03;3.17;;;26.30;95.90;;;;;;5021204;28;20057;-48
2023/04/23 09:52:33;;;;;;;4.40;3.08;;;;;;;;;;5014167;28;20132;-47
2023/04/23 09:55:06;;;;;;;39.28;26.13;;;;;;;;;;5066046;28;20082;-47
2023/04/23 09:57:42;;;;;;;3.47;2.42;;;26.70;99.90;;;;;;5073525;28;20035;-48
2023/04/23 10:00:18;;;;;;;6.30;3.55;;;26.10;99.90;;;;;;5064248;28;20096;-47
2023/04/23 10:02:49;;;;;;;5.35;3.88;;;26.20;99.90;;;;;;5031041;28;20090;-47
2023/04/23 10:05:20;;;;;;;4.22;2.97;;;26.00;99.90;;;;;;5064810;28;20063;-48
2023/04/23 10:07:49;;;;;;;5.30;3.30;;;26.10;99.90;;;;;;5054100;28;20025;-48
2023/04/23 10:10:16;;;;;;;6.97;3.65;;;;;;;;;;5074014;28;20039;-47
2023/04/23 10:12:42;;;;;;;3.97;3.00;;;26.80;93.10;;;;;;5073554;28;20528;-48
2023/04/23 10:15:09;;;;;;;4.20;2.63;;;26.70;92.70;;;;;;5073457;28;20047;-48
2023/04/23 10:17:39;;;;;;;2.97;2.40;;;27.30;94.00;;;;;;5073410;28;20036;-48
2023/04/23 10:20:07;;;;;;;7.75;3.08;;;27.30;92.90;;;;;;5065455;28;20422;-49
2023/04/23 10:22:34;;;;;;;3.10;2.28;;;27.70;93.40;;;;;;5070589;28;20123;-49
2023/04/23 10:25:07;;;;;;;4.03;2.63;;;27.50;92.40;;;;;;5068588;28;20039;-51
2023/04/23 10:27:37;;;;;;;4.25;2.65;;;27.80;92.60;;;;;;5024835;28;20064;-49
2023/04/23 10:30:05;;;;;;;4.05;1.95;;;27.20;91.50;;;;;;5025498;28;20488;-49
2023/04/23 10:32:32;;;;;;;4.85;3.22;;;26.80;92.10;;;;;;5021240;28;20061;-49
2023/04/23 10:34:58;;;;;;;4.50;2.67;;;27.50;93.30;;;;;;5019844;28;20064;-49
2023/04/23 10:37:24;;;;;;;3.63;2.25;;;27.50;91.80;;;;;;5021661;28;20038;-49
2023/04/23 10:39:55;;;;;;;3.90;2.28;;;27.80;92.20;;;;;;5020901;28;20027;-49
2023/04/23 10:42:22;;;;;;;4.20;2.80;;;27.70;92.00;;;;;;5019706;28;20044;-50
2023/04/23 10:44:48;;;;;;;3.35;2.10;;;27.80;90.50;;;;;;5021119;28;20084;-49
2023/04/23 10:47:16;;;;;;;5.70;2.60;;;27.60;90.50;;;;;;5004926;28;20061;-49
2023/04/23 10:49:43;;;;;;;3.10;2.10;;;28.00;91.80;;;;;;5019437;28;20414;-49
2023/04/23 10:52:15;;;;;;;4.88;2.50;;;28.10;91.30;;;;;;5018411;28;20059;-44
2023/04/23 10:54:42;;;;;;;2.17;1.98;;;27.80;90.90;;;;;;5016061;28;20484;-48
2023/04/23 10:57:09;;;;;;;3.45;2.45;;;27.40;91.30;;;;;;5019187;28;20057;-47
2023/04/23 10:59:39;;;;;;;3.50;2.20;;;27.50;90.10;;;;;;5058024;28;20068;-47
2023/04/23 11:02:41;;;;;;;2.53;1.88;;;27.50;89.00;;;;;;5065986;28;20393;-48
2023/04/23 11:05:08;;;;;;;4.25;3.08;;;27.90;87.30;;;;;;5065941;28;20079;-49
2023/04/23 11:07:34;;;;;;;2.80;1.90;;;27.50;86.10;;;;;;5073267;28;20041;-49
2023/04/23 11:10:01;;;;;;;2.65;1.77;;;;;;;;;;5073186;28;20028;-49
2023/04/23 11:12:26;;;;;;;4.70;2.60;;;28.30;87.80;;;;;;5073307;28;20108;-49
2023/04/23 11:14:53;;;;;;;5.88;3.65;;;28.40;88.80;;;;;;5072802;28;20095;-49
2023/04/23 11:17:32;;;;;;;3.00;2.38;;;28.40;87.00;;;;;;5073045;28;20473;-48
2023/04/23 11:20:05;;;;;;;2.67;2.15;;;28.10;84.00;;;;;;5072832;28;20107;-49
2023/04/23 11:22:36;;;;;;;2.22;1.63;;;28.50;87.20;;;;;;5073335;28;20039;-50
2023/04/23 11:25:03;;;;;;;6.40;3.23;;;28.70;85.10;;;;;;5037690;28;20405;-49
2023/04/23 11:27:30;;;;;;;2.75;1.92;;;;;;;;;;5004895;28;20828;-49
2023/04/23 11:29:56;;;;;;;4.35;1.90;;;;;;;;;;5072880;28;20029;-49
2023/04/23 11:32:23;;;;;;;1.77;1.60;;;;;;;;;;5028966;28;20052;-49
2023/04/23 11:34:50;;;;;;;64.07;20.75;;;;;;;;;;5052080;28;20033;-48
2023/04/23 11:37:16;;;;;;;2.67;2.05;;;;;;;;;;5035456;28;20045;-47
2023/04/23 11:39:43;;;;;;;3.45;1.85;;;;;;;;;;5067978;28;20040;-53
2023/04/23 11:42:13;;;;;;;2.97;1.83;;;;;;;;;;5063832;28;20480;-56
2023/04/23 11:44:40;;;;;;;2.03;1.67;;;29.20;84.00;;;;;;5003924;28;20050;-52
2023/04/23 11:47:11;;;;;;;2.58;1.58;;;29.40;81.30;;;;;;4999750;28;20042;-53
2023/04/23 11:49:38;;;;;;;1.50;1.30;;;29.20;79.30;;;;;;4999826;28;20053;-56
2023/04/23 11:52:04;;;;;;;1.98;1.75;;;29.20;78.60;;;;;;4998075;28;20113;-53
2023/04/23 11:54:32;;;;;;;3.10;1.63;;;29.10;81.20;;;;;;4991488;28;20113;-54
2023/04/23 11:56:58;;;;;;;1.73;1.58;;;29.00;79.30;;;;;;5010162;28;20026;-53
2023/04/23 11:59:25;;;;;;;2.42;1.98;;;28.80;75.80;;;;;;5011810;28;20404;-56
2023/04/23 12:01:54;;;;;;;123.03;111.65;;;28.80;76.80;;;;;;5014586;28;20362;-53
2023/04/23 12:04:21;;;;;;;115.40;105.68;;;28.30;79.30;;;;;;5014105;28;20213;-54
2023/04/23 12:06:48;;;;;;;2.55;1.67;;;28.70;76.90;;;;;;4994325;28;20482;-54
2023/04/23 12:09:16;;;;;;;279.55;255.05;;;29.10;79.50;;;;;;4994712;28;20042;-56
2023/04/23 12:11:44;;;;;;;1.90;1.40;;;;;;;;;;4994908;28;20110;-54
2023/04/23 12:14:10;;;;;;;1.40;1.15;;;;;;;;;;4994721;28;20033;-55
2023/04/23 12:16:37;;;;;;;2.13;1.38;;;;;;;;;;5067210;28;20387;-53
2023/04/23 12:19:03;;;;;;;2.17;1.30;;;;;;;;;;5064852;28;20055;-53
2023/04/23 12:21:29;;;;;;;5.97;3.30;;;;;;;;;;5069767;28;20051;-53
2023/04/23 12:23:57;;;;;;;5.00;2.50;;;28.20;74.50;;;;;;5066713;28;20043;-53
2023/04/23 12:26:25;;;;;;;3.10;1.90;;;28.10;73.30;;;;;;5075971;28;20029;-53
2023/04/23 12:28:52;;;;;;;2.47;1.40;;;28.60;75.20;;;;;;5075684;28;20154;-54
2023/04/23 12:31:20;;;;;;;1.67;1.15;;;28.50;74.40;;;;;;5073002;28;20146;-53
2023/04/23 12:33:46;;;;;;;1.98;1.50;;;28.60;73.10;;;;;;5076115;28;20036;-53
2023/04/23 12:36:15;;;;;;;1.95;1.15;;;28.30;73.50;;;;;;5075775;28;20028;-53
2023/04/23 12:38:41;;;;;;;1.60;1.23;;;28.40;76.70;;;;;;5024723;28;20049;-53
2023/04/23 12:41:07;;;;;;;2.25;1.45;;;28.10;75.80;;;;;;5075077;28;20121;-53
2023/04/23 12:43:33;;;;;;;2.92;1.40;;;28.10;75.80;;;;;;5075510;28;20119;-53
2023/04/23 12:45:58;;;;;;;1.35;1.02;;;28.30;75.20;;;;;;5040444;28;20040;-53
2023/04/23 12:48:24;;;;;;;1.17;1.08;;;28.20;75.60;;;;;;5040281;28;20051;-53
2023/04/23 12:50:50;;;;;;;2.50;1.58;;;28.60;73.70;;;;;;5075466;28;20044;-53
2023/04/23 12:53:18;;;;;;;3.15;1.52;;;28.40;75.80;;;;;;5023833;28;20032;-53
2023/04/23 12:55:44;;;;;;;2.63;1.75;;;28.50;76.20;;;;;;5075341;28;20035;-54
2023/04/23 12:58:10;;;;;;;3.63;1.73;;;28.50;76.10;;;;;;5075740;28;20036;-53
2023/04/23 13:00:36;;;;;;;2.47;1.20;;;28.70;77.00;;;;;;5042538;28;20040;-54
2023/04/23 13:03:01;;;;;;;2.15;1.70;;;28.70;75.90;;;;;;5055202;28;20511;-54
2023/04/23 13:05:27;;;;;;;2.78;1.50;;;28.20;75.80;;;;;;5019995;28;20095;-54
2023/04/23 13:07:53;;;;;;;2.10;1.77;;;27.70;76.80;;;;;;5055081;28;20108;-54
2023/04/23 13:10:19;;;;;;;4.55;2.95;;;27.70;76.50;;;;;;5057875;28;20099;-54
2023/04/23 13:12:45;;;;;;;2.17;1.40;;;28.10;78.10;;;;;;5039003;28;20071;-53